RJKN(METAR)
08/23 18:00
RJKN 230900Z 13010KT 9999 FEW030 SCT040 31/26 Q1010 RMK A2984=
戻る
トップページへ戻る
IMOC Co,.Ltd.